Time;durP1;ratioP1;P1;durP2;ratioP2;P2;SDS_P1;SDS_P2;PMS_P1;PMS_P2;Temp;Humidity;BMP_temperature;BMP_pressure;BME280_temperature;BME280_humidity;BME280_pressure;Samples;Min_cycle;Max_cycle;Signal;HPM_P1;HPM_P2
2022/08/09 00:01:57;;;;;;;15.20;8.43;;;;;;;;;;5029801;28;20508;-75
2022/08/09 00:04:22;;;;;;;16.70;8.63;;;;;;;;;;5026886;28;20025;-78
2022/08/09 00:06:48;;;;;;;13.63;8.45;;;;;;;;;;5029646;28;20092;-77
2022/08/09 00:09:14;;;;;;;17.25;9.20;;;;;;;;;;5030555;28;20033;-73
2022/08/09 00:11:39;;;;;;;19.10;8.30;;;;;;;;;;5018976;28;20056;-77
2022/08/09 00:14:05;;;;;;;16.10;7.97;;;;;;;;;;5031126;28;20025;-75
2022/08/09 00:16:30;;;;;;;14.10;8.18;;;;;;;;;;5031299;28;20040;-75
2022/08/09 00:18:56;;;;;;;14.18;8.05;;;;;;;;;;5031815;28;20037;-78
2022/08/09 00:21:21;;;;;;;12.38;8.27;;;;;;;;;;5030374;28;20014;-75
2022/08/09 00:23:46;;;;;;;13.75;7.60;;;;;;;;;;5063460;28;20032;-76
2022/08/09 00:26:11;;;;;;;15.93;8.65;;;;;;;;;;5030557;28;20537;-75
2022/08/09 00:28:38;;;;;;;13.77;7.25;;;;;;;;;;5044403;28;20018;-78
2022/08/09 00:31:03;;;;;;;20.23;8.95;;;;;;;;;;5020917;28;20413;-77
2022/08/09 00:33:28;;;;;;;15.63;7.40;;;;;;;;;;5030563;28;20037;-77
2022/08/09 00:35:54;;;;;;;13.20;7.85;;;;;;;;;;5031951;28;20518;-75
2022/08/09 00:38:20;;;;;;;14.00;8.35;;;;;;;;;;5046580;28;20018;-74
2022/08/09 00:40:46;;;;;;;12.35;7.75;;;;;;;;;;5029906;28;20393;-75
2022/08/09 00:43:11;;;;;;;16.95;8.15;;;;;;;;;;5029588;28;20030;-74
2022/08/09 00:45:37;;;;;;;16.40;7.63;;;;;;;;;;5029742;28;20030;-75
2022/08/09 00:48:03;;;;;;;15.45;8.13;;;;;;;;;;5029813;28;20029;-78
2022/08/09 00:50:28;;;;;;;12.98;8.45;;;;;;;;;;5031218;28;20017;-74
2022/08/09 00:52:53;;;;;;;14.05;7.85;;;;;;;;;;5023709;28;20044;-75
2022/08/09 00:55:19;;;;;;;16.73;8.95;;;;;;;;;;5041695;28;20465;-78
2022/08/09 00:57:44;;;;;;;15.75;7.88;;;;;;;;;;5056129;28;20021;-79
2022/08/09 01:00:11;;;;;;;15.63;8.05;;;;;;;;;;5048907;28;20500;-79
2022/08/09 01:02:38;;;;;;;17.10;8.05;;;;;;;;;;5036001;28;20028;-77
2022/08/09 01:05:11;;;;;;;15.50;7.88;;;;;;;;;;5035062;28;20051;-76
2022/08/09 01:07:36;;;;;;;;;;;;;;;;;;5036115;28;20442;-78
2022/08/09 01:10:04;;;;;;;14.18;8.10;;;;;;;;;;5035383;28;20333;-80
2022/08/09 01:12:44;;;;;;;21.95;8.65;;;;;;;;;;5037164;28;20042;-77
2022/08/09 01:15:12;;;;;;;21.85;9.20;;;;;;;;;;5055439;28;20393;-77
2022/08/09 01:17:39;;;;;;;17.90;8.50;;;;;;;;;;5048715;28;20045;-79
2022/08/09 01:20:07;;;;;;;15.43;8.43;;;;;;;;;;5036857;28;20048;-74
2022/08/09 01:22:36;;;;;;;14.75;8.60;;;;;;;;;;5034091;28;20399;-78
2022/08/09 01:25:05;;;;;;;14.63;7.30;;;;;;;;;;5035746;28;20112;-75
2022/08/09 01:27:34;;;;;;;12.10;7.60;;;;;;;;;;5035119;28;20064;-74
2022/08/09 01:30:02;;;;;;;13.63;7.78;;;;;;;;;;5034846;28;20041;-77
2022/08/09 01:32:30;;;;;;;14.98;7.70;;;;;;;;;;5035030;28;20120;-77
2022/08/09 01:34:57;;;;;;;17.23;9.10;;;;;;;;;;5035341;28;20040;-78
2022/08/09 01:37:23;;;;;;;16.13;7.28;;;;;;;;;;5033940;28;20123;-78
2022/08/09 01:39:49;;;;;;;16.38;9.30;;;;;;;;;;5049633;28;20473;-77
2022/08/09 01:42:15;;;;;;;14.40;8.95;;;;;;;;;;5028206;28;20029;-77
2022/08/09 01:44:41;;;;;;;13.90;8.95;;;;;;;;;;5035091;28;20402;-78
2022/08/09 01:47:06;;;;;;;20.42;8.52;;;;;;;;;;5034439;28;20108;-73
2022/08/09 01:49:33;;;;;;;16.20;8.60;;;;;;;;;;5048404;28;20029;-74
2022/08/09 01:52:02;;;;;;;16.65;9.32;;;;;;;;;;5021252;28;20030;-78
2022/08/09 01:54:43;;;;;;;21.25;8.52;;;;;;;;;;5016738;28;20026;-78
2022/08/09 01:57:11;;;;;;;20.90;9.35;;;;;;;;;;5070674;28;20017;-74
2022/08/09 01:59:38;;;;;;;17.80;8.50;;;;;;;;;;5049184;28;20060;-74
2022/08/09 02:02:04;;;;;;;23.23;9.23;;;;;;;;;;5033160;28;20037;-79
2022/08/09 02:04:30;;;;;;;15.80;8.73;;;;;;;;;;5033296;28;20037;-79
2022/08/09 02:07:15;;;;;;;17.55;9.02;;;;;;;;;;5033536;28;20072;-73
2022/08/09 02:09:46;;;;;;;18.73;8.95;;;;;;;;;;5034049;28;20044;-73
2022/08/09 02:12:12;;;;;;;15.25;8.80;;;;;;;;;;5033473;28;20490;-78
2022/08/09 02:14:39;;;;;;;13.75;7.57;;;;;;;;;;5043563;28;20434;-78
2022/08/09 02:17:05;;;;;;;22.00;9.38;;;;;;;;;;5050113;28;20477;-75
2022/08/09 02:19:30;;;;;;;16.55;9.40;;;;;;;;;;5033886;28;20018;-78
2022/08/09 02:21:58;;;;;;;18.50;9.25;;;;;;;;;;5033355;28;20056;-75
2022/08/09 02:24:25;;;;;;;19.88;8.60;;;;;;;;;;5014244;28;20037;-74
2022/08/09 02:26:52;;;;;;;14.38;8.88;;;;;;;;;;5020619;28;20055;-75
2022/08/09 02:29:17;;;;;;;16.67;8.70;;;;;;;;;;5033596;28;20014;-74
2022/08/09 02:31:43;;;;;;;17.40;7.83;;;;;;;;;;5032254;28;20036;-75
2022/08/09 02:34:13;;;;;;;17.40;8.30;;;;;;;;;;5033924;28;20266;-74
2022/08/09 02:36:43;;;;;;;15.75;8.40;;;;;;;;;;5031673;28;20028;-78
2022/08/09 02:39:14;;;;;;;16.02;7.75;;;;;;;;;;5032896;28;20030;-75
2022/08/09 02:41:48;;;;;;;17.67;8.30;;;;;;;;;;5032817;28;20048;-78
2022/08/09 02:44:15;;;;;;;15.65;8.32;;;;;;;;;;5014334;28;20387;-75
2022/08/09 02:46:42;;;;;;;16.98;9.40;;;;;;;;;;5026756;28;20553;-74
2022/08/09 02:49:09;;;;;;;15.90;8.32;;;;;;;;;;5031954;28;20029;-79
2022/08/09 02:51:36;;;;;;;20.23;8.25;;;;;;;;;;5033506;28;20108;-78
2022/08/09 02:54:01;;;;;;;14.82;8.30;;;;;;;;;;5048326;28;20385;-74
2022/08/09 02:56:29;;;;;;;18.38;8.35;;;;;;;;;;5032831;28;20010;-74
2022/08/09 02:58:55;;;;;;;15.38;8.65;;;;;;;;;;5032710;28;20056;-78
2022/08/09 03:01:21;;;;;;;17.67;8.27;;;;;;;;;;5033480;28;20021;-75
2022/08/09 03:03:46;;;;;;;15.25;8.30;;;;;;;;;;5032464;28;20026;-74
2022/08/09 03:06:13;;;;;;;18.65;9.00;;;;;;;;;;5031483;28;20083;-77
2022/08/09 03:08:43;;;;;;;18.38;8.68;;;;;;;;;;5032964;28;20025;-77
2022/08/09 03:11:08;;;;;;;18.02;8.65;;;;;;;;;;5032005;28;20020;-74
2022/08/09 03:13:34;;;;;;;18.20;9.40;;;;;;;;;;5051710;28;20037;-77
2022/08/09 03:15:59;;;;;;;15.75;7.22;;;;;;;;;;5032761;28;20406;-77
2022/08/09 03:18:25;;;;;;;17.63;8.65;;;;;;;;;;5033049;28;20462;-79
2022/08/09 03:20:51;;;;;;;15.75;8.07;;;;;;;;;;5031133;28;20025;-79
2022/08/09 03:23:16;;;;;;;18.38;8.07;;;;;;;;;;5032577;28;20030;-79
2022/08/09 03:25:42;;;;;;;20.02;8.05;;;;;;;;;;5032854;28;20034;-79
2022/08/09 03:28:08;;;;;;;16.08;8.73;;;;;;;;;;5032655;28;20432;-80
2022/08/09 03:30:34;;;;;;;13.57;8.25;;;;;;;;;;5047950;28;20501;-76
2022/08/09 03:33:05;;;;;;;15.50;8.88;;;;;;;;;;5031492;28;20064;-79
2022/08/09 03:35:31;;;;;;;17.98;8.73;;;;;;;;;;5032659;28;20033;-74
2022/08/09 03:37:56;;;;;;;17.25;9.07;;;;;;;;;;5031399;28;20026;-75
2022/08/09 03:40:21;;;;;;;17.80;8.82;;;;;;;;;;5032540;28;20033;-78
2022/08/09 03:42:46;;;;;;;17.15;8.77;;;;;;;;;;5031728;28;20029;-78
2022/08/09 03:45:12;;;;;;;18.75;7.88;;;;;;;;;;5032351;28;20036;-74
2022/08/09 03:47:38;;;;;;;15.75;7.85;;;;;;;;;;5032814;28;20100;-78
2022/08/09 03:50:04;;;;;;;17.40;8.27;;;;;;;;;;5047985;28;20031;-74
2022/08/09 03:52:30;;;;;;;19.85;8.48;;;;;;;;;;5032154;28;20033;-74
2022/08/09 03:54:56;;;;;;;16.30;8.10;;;;;;;;;;5032550;28;20109;-78
2022/08/09 03:57:21;;;;;;;15.52;8.13;;;;;;;;;;5032045;28;20022;-76
2022/08/09 03:59:47;;;;;;;18.00;9.82;;;;;;;;;;5032461;28;20009;-78
2022/08/09 04:02:12;;;;;;;18.67;9.10;;;;;;;;;;5030509;28;20061;-74
2022/08/09 04:04:38;;;;;;;16.10;7.65;;;;;;;;;;5031836;28;20045;-78
2022/08/09 04:07:03;;;;;;;17.60;8.40;;;;;;;;;;5032187;28;20037;-78
2022/08/09 04:09:32;;;;;;;13.50;7.45;;;;;;;;;;5030014;28;20045;-78
2022/08/09 04:12:01;;;;;;;18.95;8.55;;;;;;;;;;5031361;28;20037;-78
2022/08/09 04:14:27;;;;;;;15.25;7.95;;;;;;;;;;5034442;28;20025;-78
2022/08/09 04:16:52;;;;;;;15.23;8.48;;;;;;;;;;5032751;28;20056;-78
2022/08/09 04:19:18;;;;;;;14.70;8.63;;;;;;;;;;5031684;28;20031;-78
2022/08/09 04:21:44;;;;;;;18.63;8.60;;;;;;;;;;5032513;28;20030;-78
2022/08/09 04:24:09;;;;;;;18.23;8.25;;;;;;;;;;5046941;28;20396;-77
2022/08/09 04:26:34;;;;;;;17.50;8.52;;;;;;;;;;5031927;28;20061;-74
2022/08/09 04:28:59;;;;;;;15.52;7.85;;;;;;;;;;5031426;28;20029;-77
2022/08/09 04:31:25;;;;;;;18.65;8.82;;;;;;;;;;5034797;28;20061;-78
2022/08/09 04:33:50;;;;;;;16.60;9.35;;;;;;;;;;5036268;28;20033;-75
2022/08/09 04:36:16;;;;;;;19.58;9.32;;;;;;;;;;5036277;28;20017;-75
2022/08/09 04:38:41;;;;;;;22.73;10.88;;;;;;;;;;5035047;28;20033;-75
2022/08/09 04:41:06;;;;;;;16.17;8.40;;;;;;;;;;5035892;28;20098;-75
2022/08/09 04:43:31;;;;;;;19.58;10.00;;;;;;;;;;5032407;28;20650;-78
2022/08/09 04:45:57;;;;;;;18.20;9.40;;;;;;;;;;5035427;28;20037;-75
2022/08/09 04:48:22;;;;;;;18.75;8.60;;;;;;;;;;5035601;28;20052;-75
2022/08/09 04:50:47;;;;;;;26.60;8.68;;;;;;;;;;5033885;28;20026;-78
2022/08/09 04:53:13;;;;;;;16.55;8.65;;;;;;;;;;5034475;28;20044;-78
2022/08/09 04:55:38;;;;;;;15.68;8.45;;;;;;;;;;5035900;28;20029;-75
2022/08/09 04:58:04;;;;;;;17.98;8.02;;;;;;;;;;5046798;28;20029;-74
2022/08/09 05:00:29;;;;;;;17.48;8.80;;;;;;;;;;5023267;28;20026;-75
2022/08/09 05:02:55;;;;;;;16.95;8.45;;;;;;;;;;5037939;28;20037;-75
2022/08/09 05:05:21;;;;;;;30.25;9.52;;;;;;;;;;5034351;28;20056;-74
2022/08/09 05:07:46;;;;;;;18.30;9.23;;;;;;;;;;5024451;28;20084;-74
2022/08/09 05:10:12;;;;;;;16.92;9.18;;;;;;;;;;5033589;28;20037;-75
2022/08/09 05:12:38;;;;;;;15.55;8.27;;;;;;;;;;5034302;28;20018;-78
2022/08/09 05:15:03;;;;;;;19.23;8.38;;;;;;;;;;5034112;28;20036;-79
2022/08/09 05:17:28;;;;;;;22.13;9.38;;;;;;;;;;5033258;28;20052;-79
2022/08/09 05:19:53;;;;;;;20.17;9.15;;;;;;;;;;5048972;28;20128;-74
2022/08/09 05:22:19;;;;;;;16.33;7.88;;;;;;;;;;5033270;28;20051;-79
2022/08/09 05:24:44;;;;;;;16.38;7.38;;;;;;;;;;5032630;28;20028;-79
2022/08/09 05:27:10;;;;;;;19.88;9.05;;;;;;;;;;5033526;28;20037;-79
2022/08/09 05:29:36;;;;;;;22.45;9.00;;;;;;;;;;5034112;28;20055;-76
2022/08/09 05:32:01;;;;;;;24.63;9.68;;;;;;;;;;5031591;28;20142;-75
2022/08/09 05:34:27;;;;;;;17.92;8.45;;;;;;;;;;5034523;28;20033;-78
2022/08/09 05:36:52;;;;;;;14.07;7.95;;;;;;;;;;5032899;28;20025;-75
2022/08/09 05:39:17;;;;;;;15.88;7.68;;;;;;;;;;5034492;28;20022;-79
2022/08/09 05:41:43;;;;;;;14.02;8.13;;;;;;;;;;5031048;28;20025;-76
2022/08/09 05:44:10;;;;;;;18.60;8.65;;;;;;;;;;5033297;28;20026;-78
2022/08/09 05:46:35;;;;;;;19.42;8.68;;;;;;;;;;5033074;28;20549;-78
2022/08/09 05:49:00;;;;;;;10.45;5.90;;;;;;;;;;5032925;28;20065;-75
2022/08/09 05:51:26;;;;;;;6.35;4.05;;;;;;;;;;5032322;28;20056;-75
2022/08/09 05:53:51;;;;;;;9.73;5.68;;;;;;;;;;5048221;28;20022;-75
2022/08/09 05:56:16;;;;;;;15.32;7.28;;;;;;;;;;5040275;28;20022;-75
2022/08/09 05:58:41;;;;;;;36.37;10.50;;;;;;;;;;5032685;28;20026;-78
2022/08/09 06:01:07;;;;;;;27.67;11.15;;;;;;;;;;5033262;28;20270;-78
2022/08/09 06:03:32;;;;;;;21.85;8.88;;;;;;;;;;5033134;28;20037;-75
2022/08/09 06:05:57;;;;;;;22.42;9.55;;;;;;;;;;4996653;28;1074971;-75
2022/08/09 06:08:23;;;;;;;18.65;8.60;;;;;;;;;;5033861;28;20079;-75
2022/08/09 06:10:48;;;;;;;27.67;12.27;;;;;;;;;;5033907;28;20103;-75
2022/08/09 06:13:16;;;;;;;22.20;8.57;;;;;;;;;;5033808;28;20071;-77
2022/08/09 06:15:42;;;;;;;24.13;9.88;;;;;;;;;;5033578;28;20480;-77
2022/08/09 06:18:07;;;;;;;21.48;9.43;;;;;;;;;;5033780;28;20022;-78
2022/08/09 06:20:33;;;;;;;15.15;8.93;;;;;;;;;;5049275;28;20028;-73
2022/08/09 06:22:58;;;;;;;16.90;8.32;;;;;;;;;;5049348;28;20024;-76
2022/08/09 06:25:24;;;;;;;25.60;11.77;;;;;;;;;;5034720;28;20397;-73
2022/08/09 06:27:49;;;;;;;30.20;12.27;;;;;;;;;;5033103;28;20237;-76
2022/08/09 06:30:14;;;;;;;23.10;10.82;;;;;;;;;;5034236;28;20044;-73
2022/08/09 06:32:41;;;;;;;23.67;9.98;;;;;;;;;;5032330;28;20029;-73
2022/08/09 06:35:06;;;;;;;27.52;9.38;;;;;;;;;;5033040;28;20064;-75
2022/08/09 06:37:32;;;;;;;21.83;9.38;;;;;;;;;;5047962;28;20057;-75
2022/08/09 06:39:57;;;;;;;21.20;9.27;;;;;;;;;;5033424;28;20017;-74
2022/08/09 06:42:22;;;;;;;22.60;10.80;;;;;;;;;;5032463;28;20038;-74
2022/08/09 06:44:47;;;;;;;17.83;8.60;;;;;;;;;;5033247;28;20079;-73
2022/08/09 06:47:13;;;;;;;17.05;8.00;;;;;;;;;;5047950;28;20032;-79
2022/08/09 06:49:38;;;;;;;15.93;7.57;;;;;;;;;;5033829;28;20029;-77
2022/08/09 06:52:04;;;;;;;14.40;8.20;;;;;;;;;;5023611;28;20021;-73
2022/08/09 06:54:29;;;;;;;30.75;9.93;;;;;;;;;;5034264;28;20259;-76
2022/08/09 06:56:57;;;;;;;21.83;9.65;;;;;;;;;;5037514;28;20466;-75
2022/08/09 06:59:23;;;;;;;18.45;8.48;;;;;;;;;;5032750;28;20037;-78
2022/08/09 07:01:48;;;;;;;18.83;9.05;;;;;;;;;;5047788;28;20025;-75
2022/08/09 07:04:13;;;;;;;16.73;8.07;;;;;;;;;;5048422;28;20041;-75
2022/08/09 07:06:38;;;;;;;21.02;8.32;;;;;;;;;;5032370;28;20057;-74
2022/08/09 07:09:03;;;;;;;22.65;7.63;;;;;;;;;;5032062;28;20363;-73
2022/08/09 07:11:29;;;;;;;19.98;8.73;;;;;;;;;;5033105;28;20369;-74
2022/08/09 07:13:54;;;;;;;13.48;6.47;;;;;;;;;;5032782;28;20389;-77
2022/08/09 07:16:19;;;;;;;16.35;8.75;;;;;;;;;;5031840;28;20026;-74
2022/08/09 07:18:44;;;;;;;18.75;7.40;;;;;;;;;;5031937;28;20033;-77
2022/08/09 07:21:09;;;;;;;17.90;7.18;;;;;;;;;;5026227;28;20380;-77
2022/08/09 07:23:40;;;;;;;16.80;7.03;;;;;;;;;;5047940;28;20041;-74
2022/08/09 07:26:05;;;;;;;17.45;7.78;;;;;;;;;;5032579;28;20036;-77
2022/08/09 07:28:33;;;;;;;21.50;8.13;;;;;;;;;;5032598;28;20025;-74
2022/08/09 07:31:03;;;;;;;16.58;7.68;;;;;;;;;;5032709;28;20033;-77
2022/08/09 07:33:31;;;;;;;15.85;6.63;;;;;;;;;;5030786;28;20022;-77
2022/08/09 07:35:57;;;;;;;14.85;7.75;;;;;;;;;;5031360;28;20021;-77
2022/08/09 07:38:22;;;;;;;9.80;6.80;;;;;;;;;;5031030;28;20044;-78
2022/08/09 07:40:47;;;;;;;12.15;6.72;;;;;;;;;;5031852;28;20033;-74
2022/08/09 07:43:13;;;;;;;12.93;6.95;;;;;;;;;;5030480;28;20063;-78
2022/08/09 07:45:38;;;;;;;11.88;6.45;;;;;;;;;;5032449;28;20021;-75
2022/08/09 07:48:03;;;;;;;14.98;7.53;;;;;;;;;;5031755;28;20036;-77
2022/08/09 07:50:29;;;;;;;7.25;4.70;;;;;;;;;;5047375;28;20052;-78
2022/08/09 07:52:54;;;;;;;11.57;5.93;;;;;;;;;;5032933;28;20445;-75
2022/08/09 07:55:19;;;;;;;14.35;5.95;;;;;;;;;;5038710;28;20021;-79
2022/08/09 07:57:47;;;;;;;9.57;4.72;;;;;;;;;;5031474;28;20026;-75
2022/08/09 08:00:13;;;;;;;9.05;4.60;;;;;;;;;;5029753;28;20029;-78
2022/08/09 08:02:38;;;;;;;9.15;4.60;;;;;;;;;;5031027;28;20480;-74
2022/08/09 08:05:04;;;;;;;11.90;3.58;;;;;;;;;;5031666;28;20052;-79
2022/08/09 08:07:29;;;;;;;7.03;3.75;;;;;;;;;;5045742;28;20052;-75
2022/08/09 08:09:54;;;;;;;5.17;3.43;;;;;;;;;;5050884;28;20052;-79
2022/08/09 08:12:20;;;;;;;8.57;4.10;;;;;;;;;;5034637;28;20286;-79
2022/08/09 08:14:45;;;;;;;4.95;3.70;;;;;;;;;;5031629;28;20079;-76
2022/08/09 08:17:10;;;;;;;9.07;3.95;;;;;;;;;;5030620;28;20037;-76
2022/08/09 08:19:35;;;;;;;5.43;3.13;;;;;;;;;;5032035;28;20021;-76
2022/08/09 08:22:01;;;;;;;4.28;2.45;;;;;;;;;;5031060;28;20025;-78
2022/08/09 08:24:26;;;;;;;3.15;2.70;;;;;;;;;;5031102;28;20500;-78
2022/08/09 08:26:51;;;;;;;5.30;2.25;;;;;;;;;;5031072;28;20418;-77
2022/08/09 08:29:18;;;;;;;6.05;1.88;;;;;;;;;;5031538;28;20470;-78
2022/08/09 08:31:44;;;;;;;4.07;1.95;;;;;;;;;;5030702;28;20032;-75
2022/08/09 08:34:09;;;;;;;1.48;1.33;;;;;;;;;;5029391;28;20049;-74
2022/08/09 08:36:35;;;;;;;2.45;1.45;;;;;;;;;;5045743;28;20116;-77
2022/08/09 08:39:00;;;;;;;6.45;1.80;;;;;;;;;;5031391;28;20025;-76
2022/08/09 08:41:25;;;;;;;3.87;1.87;;;;;;;;;;5029165;28;20052;-74
2022/08/09 08:43:50;;;;;;;6.40;2.35;;;;;;;;;;5030266;28;20278;-73
2022/08/09 08:46:16;;;;;;;3.88;2.47;;;;;;;;;;5046102;28;20049;-76
2022/08/09 08:48:42;;;;;;;3.95;1.58;;;;;;;;;;5046110;28;20079;-77
2022/08/09 08:51:07;;;;;;;3.03;1.75;;;;;;;;;;5030962;28;20006;-74
2022/08/09 08:53:33;;;;;;;2.08;1.50;;;;;;;;;;5031406;28;20030;-77
2022/08/09 08:56:00;;;;;;;5.05;1.55;;;;;;;;;;5031230;28;20025;-75
2022/08/09 08:58:26;;;;;;;3.42;2.25;;;;;;;;;;5031101;28;20064;-77
2022/08/09 09:00:51;;;;;;;5.03;1.77;;;;;;;;;;5051048;28;20029;-77
2022/08/09 09:03:17;;;;;;;2.25;1.70;;;;;;;;;;5041377;28;20079;-77
2022/08/09 09:05:43;;;;;;;3.72;1.63;;;;;;;;;;5030947;28;20041;-77
2022/08/09 09:08:09;;;;;;;2.92;2.00;;;;;;;;;;5032458;28;20034;-77
2022/08/09 09:10:37;;;;;;;2.35;1.65;;;;;;;;;;5031096;28;20033;-78
2022/08/09 09:13:02;;;;;;;3.00;1.80;;;;;;;;;;5030685;28;20493;-75
2022/08/09 09:15:27;;;;;;;2.40;2.20;;;;;;;;;;5031280;28;20025;-75
2022/08/09 09:17:53;;;;;;;4.03;2.10;;;;;;;;;;5043436;28;20044;-78
2022/08/09 09:20:18;;;;;;;8.10;2.58;;;;;;;;;;5034872;28;20032;-76
2022/08/09 09:22:57;;;;;;;3.30;2.08;;;;;;;;;;5034706;28;20523;-75
2022/08/09 09:25:31;;;;;;;2.88;1.80;;;;;;;;;;5034352;28;20065;-79
2022/08/09 09:27:56;;;;;;;5.28;1.80;;;;;;;;;;5033890;28;20033;-76
2022/08/09 09:30:22;;;;;;;3.58;1.77;;;;;;;;;;5034663;28;20026;-77
2022/08/09 09:32:59;;;;;;;3.17;2.20;;;;;;;;;;5036250;28;20028;-77
2022/08/09 09:35:24;;;;;;;3.40;1.83;;;;;;;;;;5044274;28;20108;-74
2022/08/09 09:37:52;;;;;;;5.60;2.63;;;;;;;;;;5034335;28;20064;-77
2022/08/09 09:40:20;;;;;;;2.67;1.48;;;;;;;;;;5033770;28;20026;-75
2022/08/09 09:42:55;;;;;;;3.55;1.60;;;;;;;;;;5033320;28;20009;-74
2022/08/09 09:45:22;;;;;;;1.60;1.50;;;;;;;;;;5033949;28;20113;-77
2022/08/09 09:47:50;;;;;;;4.28;2.10;;;;;;;;;;5035214;28;20025;-77
2022/08/09 09:50:21;;;;;;;5.80;2.40;;;;;;;;;;5034874;28;20056;-78
2022/08/09 09:52:50;;;;;;;2.10;1.77;;;;;;;;;;5016896;28;20029;-77
2022/08/09 09:55:15;;;;;;;3.05;1.55;;;;;;;;;;5036864;28;20021;-75
2022/08/09 09:57:42;;;;;;;2.50;1.30;;;;;;;;;;5052787;28;20387;-77
2022/08/09 10:00:21;;;;;;;2.28;1.45;;;;;;;;;;5033881;28;20053;-74
2022/08/09 10:02:46;;;;;;;2.63;1.70;;;;;;;;;;5033231;28;20378;-75
2022/08/09 10:05:11;;;;;;;5.38;1.77;;;;;;;;;;5033576;28;20060;-74
2022/08/09 10:07:39;;;;;;;5.57;1.55;;;;;;;;;;5034768;28;20017;-77
2022/08/09 10:10:08;;;;;;;6.47;1.52;;;;;;;;;;5034487;28;20097;-77
2022/08/09 10:12:37;;;;;;;3.83;1.65;;;;;;;;;;5034871;28;20027;-78
2022/08/09 10:15:11;;;;;;;3.40;1.88;;;;;;;;;;5014452;28;20022;-75
2022/08/09 10:17:37;;;;;;;3.00;1.40;;;;;;;;;;5025233;28;20013;-75
2022/08/09 10:20:20;;;;;;;4.13;1.70;;;;;;;;;;5033449;28;20025;-74
2022/08/09 10:22:46;;;;;;;13.98;2.92;;;;;;;;;;5014474;28;20034;-77
2022/08/09 10:25:11;;;;;;;2.53;1.60;;;;;;;;;;5037564;28;20033;-77
2022/08/09 10:27:44;;;;;;;2.22;1.60;;;;;;;;;;5032823;28;20033;-77
2022/08/09 10:30:09;;;;;;;2.03;1.50;;;;;;;;;;5049338;28;20512;-74
2022/08/09 10:32:39;;;;;;;3.83;1.50;;;;;;;;;;5033639;28;20025;-77
2022/08/09 10:35:05;;;;;;;3.92;1.67;;;;;;;;;;5033755;28;20092;-77
2022/08/09 10:37:33;;;;;;;4.13;1.50;;;;;;;;;;5033742;28;20037;-75
2022/08/09 10:40:04;;;;;;;4.43;1.58;;;;;;;;;;5033757;28;20057;-77
2022/08/09 10:42:29;;;;;;;1.67;1.02;;;;;;;;;;5033211;28;20533;-75
2022/08/09 10:45:14;;;;;;;2.65;2.03;;;;;;;;;;5034009;28;20101;-77
2022/08/09 10:48:00;;;;;;;2.47;1.40;;;;;;;;;;5033225;28;20077;-77
2022/08/09 10:50:27;;;;;;;3.13;1.45;;;;;;;;;;5012130;28;20389;-77
2022/08/09 10:53:03;;;;;;;3.45;1.20;;;;;;;;;;5033345;28;20034;-77
2022/08/09 10:55:32;;;;;;;3.47;1.40;;;;;;;;;;5042039;28;20048;-77
2022/08/09 10:57:57;;;;;;;4.32;1.55;;;;;;;;;;5052879;28;20373;-75
2022/08/09 11:00:40;;;;;;;2.25;1.65;;;;;;;;;;5039339;28;20028;-75
2022/08/09 11:03:18;;;;;;;3.85;1.67;;;;;;;;;;5033240;28;20021;-77
2022/08/09 11:06:02;;;;;;;2.22;1.65;;;;;;;;;;5033507;28;20065;-75
2022/08/09 11:08:44;;;;;;;6.60;2.67;;;;;;;;;;5033236;28;20029;-75
2022/08/09 11:11:09;;;;;;;2.15;1.38;;;;;;;;;;5034421;28;20473;-75
2022/08/09 11:13:38;;;;;;;2.60;1.90;;;;;;;;;;5033210;28;20072;-78
2022/08/09 11:16:22;;;;;;;2.72;1.40;;;;;;;;;;5036486;28;20020;-74
2022/08/09 11:18:47;;;;;;;2.42;1.50;;;;;;;;;;5033091;28;20500;-75
2022/08/09 11:21:31;;;;;;;1.77;1.50;;;;;;;;;;5033240;28;20097;-75
2022/08/09 11:23:57;;;;;;;1.77;1.30;;;;;;;;;;5032975;28;20021;-77
2022/08/09 11:26:38;;;;;;;2.35;1.60;;;;;;;;;;5033003;28;20030;-77
2022/08/09 11:29:08;;;;;;;4.63;1.52;;;;;;;;;;5048911;28;20017;-76
2022/08/09 11:31:39;;;;;;;1.95;1.45;;;;;;;;;;5048367;28;20539;-77
2022/08/09 11:34:11;;;;;;;5.65;2.10;;;;;;;;;;5029494;28;20052;-76
2022/08/09 11:36:39;;;;;;;3.42;1.60;;;;;;;;;;5031295;28;20029;-75
2022/08/09 11:39:05;;;;;;;5.55;1.52;;;;;;;;;;5032530;28;20052;-77
2022/08/09 11:41:30;;;;;;;1.90;1.42;;;;;;;;;;5033054;28;20053;-75
2022/08/09 11:43:56;;;;;;;3.28;1.40;;;;;;;;;;5031717;28;20021;-78
2022/08/09 11:46:21;;;;;;;1.40;1.30;;;;;;;;;;5032659;28;20500;-77
2022/08/09 11:48:56;;;;;;;1.83;1.10;;;;;;;;;;5035312;28;20022;-77
2022/08/09 11:51:23;;;;;;;2.33;1.13;;;;;;;;;;5036303;28;20101;-77
2022/08/09 11:53:48;;;;;;;2.25;1.23;;;;;;;;;;5047638;28;20032;-75
2022/08/09 11:56:19;;;;;;;3.17;1.20;;;;;;;;;;5033228;28;20021;-75
2022/08/09 11:58:45;;;;;;;3.95;1.33;;;;;;;;;;5033146;28;20056;-77
2022/08/09 12:01:12;;;;;;;2.72;1.50;;;;;;;;;;5047917;28;20067;-75
2022/08/09 12:03:37;;;;;;;1.35;1.23;;;;;;;;;;5032748;28;20025;-77
2022/08/09 12:06:14;;;;;;;1.50;1.17;;;;;;;;;;5032448;28;20408;-77
2022/08/09 12:08:43;;;;;;;1.70;1.40;;;;;;;;;;5031236;28;20075;-76
2022/08/09 12:11:11;;;;;;;3.15;1.30;;;;;;;;;;5031435;28;20029;-78
2022/08/09 12:13:46;;;;;;;4.00;1.50;;;;;;;;;;5030713;28;20026;-77
2022/08/09 12:16:16;;;;;;;1.60;1.30;;;;;;;;;;5032802;28;20028;-77
2022/08/09 12:18:46;;;;;;;1.58;1.40;;;;;;;;;;5031868;28;20120;-76
2022/08/09 12:21:12;;;;;;;2.85;1.55;;;;;;;;;;5031040;28;20021;-77
2022/08/09 12:23:42;;;;;;;2.88;1.38;;;;;;;;;;5048095;28;20025;-75
2022/08/09 12:26:07;;;;;;;2.78;1.52;;;;;;;;;;5032967;28;20027;-77
2022/08/09 12:28:33;;;;;;;2.72;1.40;;;;;;;;;;5030383;28;20124;-74
2022/08/09 12:30:59;;;;;;;1.20;1.10;;;;;;;;;;5031272;28;20034;-76
2022/08/09 12:33:24;;;;;;;4.20;1.48;;;;;;;;;;5031746;28;20101;-75
2022/08/09 12:36:01;;;;;;;3.88;1.42;;;;;;;;;;5031361;28;20458;-76
2022/08/09 12:38:29;;;;;;;1.95;1.52;;;;;;;;;;5048124;28;20463;-77
2022/08/09 12:40:55;;;;;;;2.92;1.23;;;;;;;;;;5047187;28;20070;-74
2022/08/09 12:43:23;;;;;;;1.63;1.40;;;;;;;;;;5030895;28;20010;-77
2022/08/09 12:45:49;;;;;;;2.38;1.58;;;;;;;;;;5031828;28;20389;-77
2022/08/09 12:48:15;;;;;;;1.98;1.30;;;;;;;;;;5032458;28;20112;-75
2022/08/09 12:50:41;;;;;;;3.58;1.60;;;;;;;;;;5032421;28;20025;-75
2022/08/09 12:53:22;;;;;;;1.60;1.50;;;;;;;;;;5051211;28;20038;-77
2022/08/09 12:55:47;;;;;;;2.17;1.48;;;;;;;;;;5047670;28;20062;-75
2022/08/09 12:58:13;;;;;;;2.97;1.30;;;;;;;;;;5054638;28;20431;-75
2022/08/09 13:00:42;;;;;;;4.13;1.55;;;;;;;;;;5041652;28;20025;-74
2022/08/09 13:03:08;;;;;;;2.17;1.38;;;;;;;;;;5035078;28;20032;-76
2022/08/09 13:05:44;;;;;;;1.42;1.33;;;;;;;;;;5035709;28;20537;-77
2022/08/09 13:08:13;;;;;;;2.72;1.73;;;;;;;;;;5036108;28;20064;-77
2022/08/09 13:10:45;;;;;;;2.45;2.25;;;;;;;;;;5050434;28;20388;-77
2022/08/09 13:13:11;;;;;;;4.97;1.70;;;;;;;;;;5035104;28;20100;-77
2022/08/09 13:15:53;;;;;;;1.58;1.40;;;;;;;;;;5036503;28;20100;-77
2022/08/09 13:18:18;;;;;;;4.93;2.63;;;;;;;;;;5035397;28;20033;-77
2022/08/09 13:20:43;;;;;;;2.70;1.60;;;;;;;;;;5035719;28;20093;-75
2022/08/09 13:23:09;;;;;;;7.38;1.88;;;;;;;;;;5035463;28;20057;-77
2022/08/09 13:25:40;;;;;;;2.97;1.63;;;;;;;;;;5036013;28;20033;-75
2022/08/09 13:28:16;;;;;;;6.20;1.63;;;;;;;;;;5050124;28;20313;-77
2022/08/09 13:30:42;;;;;;;2.88;1.42;;;;;;;;;;5036548;28;20035;-77
2022/08/09 13:33:08;;;;;;;3.63;1.70;;;;;;;;;;5041447;28;20504;-75
2022/08/09 13:35:33;;;;;;;3.70;1.52;;;;;;;;;;5035368;28;20025;-75
2022/08/09 13:38:01;;;;;;;5.30;3.03;;;;;;;;;;5035174;28;20474;-77
2022/08/09 13:40:26;;;;;;;2.05;1.48;;;;;;;;;;5035153;28;20032;-76
2022/08/09 13:42:52;;;;;;;2.10;1.53;;;;;;;;;;5034436;28;20451;-75
2022/08/09 13:45:18;;;;;;;3.58;1.80;;;;;;;;;;5034828;28;20346;-77
2022/08/09 13:47:43;;;;;;;3.10;1.50;;;;;;;;;;5034199;28;20030;-77
2022/08/09 13:50:12;;;;;;;2.15;1.60;;;;;;;;;;5034352;28;20025;-74
2022/08/09 13:52:40;;;;;;;2.08;1.75;;;;;;;;;;5050338;28;20136;-75
2022/08/09 13:55:09;;;;;;;4.38;1.77;;;;;;;;;;5041611;28;20087;-77
2022/08/09 13:57:36;;;;;;;1.90;1.63;;;;;;;;;;5039246;28;20029;-75
2022/08/09 14:00:02;;;;;;;2.47;1.88;;;;;;;;;;5033721;28;20112;-75
2022/08/09 14:02:30;;;;;;;5.13;1.90;;;;;;;;;;5034703;28;20025;-77
2022/08/09 14:04:56;;;;;;;3.40;1.77;;;;;;;;;;5035016;28;20045;-77
2022/08/09 14:07:21;;;;;;;3.38;2.20;;;;;;;;;;5035021;28;20049;-77
2022/08/09 14:09:46;;;;;;;4.30;1.80;;;;;;;;;;5034610;28;20028;-75
2022/08/09 14:12:11;;;;;;;3.73;1.87;;;;;;;;;;5034789;28;20753;-77
2022/08/09 14:14:39;;;;;;;2.20;1.73;;;;;;;;;;5029962;28;20259;-75
2022/08/09 14:17:04;;;;;;;5.32;2.55;;;;;;;;;;5033594;28;20017;-75
2022/08/09 14:19:30;;;;;;;4.20;2.38;;;;;;;;;;5034519;28;20028;-77
2022/08/09 14:21:55;;;;;;;4.22;2.95;;;;;;;;;;5036811;28;20104;-77
2022/08/09 14:24:20;;;;;;;4.82;2.58;;;;;;;;;;5054612;28;20091;-76
2022/08/09 14:26:46;;;;;;;4.88;1.77;;;;;;;;;;5050956;28;20349;-75
2022/08/09 14:29:13;;;;;;;2.67;1.55;;;;;;;;;;5034528;28;20033;-75
2022/08/09 14:31:39;;;;;;;5.07;2.15;;;;;;;;;;5034122;28;20040;-77
2022/08/09 14:34:04;;;;;;;3.22;2.35;;;;;;;;;;5034204;28;20029;-75
2022/08/09 14:36:30;;;;;;;6.28;2.10;;;;;;;;;;5032629;28;20108;-75